Varena, Lithuania

10:00 PM EEST on October 01, 2014 (GMT +0300)
Vilnius International | Change Station
CLOSE
Current Station
Airport
Location: Vilnius,
Elevation: 643 ft
Nearby Weather Stations

Elev 643 ft 54.63 °N, 25.29 °E | Updated 10 minutes ago

Clear
Clear
43 °F
Feels Like 43 °F
N
0
Wind Variable Wind from North

Today
High -- | Low -- °F
--% Chance of Precip.
Yesterday
High -- | Low -- °F
Precip. -- in
7:23 AM 6:58 PM
Waxing Crescent, 50% visible
Pressure 30.45 in
Visibility -9999.0 miles
Clouds
Dew Point 37 °F
Humidity 81%
Rainfall 0.00 in
Snow Depth Not available.
UV Not available.
Pollen Not available.
Air Quality Not available.
Flu Activity Not available.
METAR EYVI 011850Z 00000KT CAVOK 06/03 Q1031 NOSIG

More Conditions Fewer Conditions

Pressure 30.45 in
Visibility -9999.0 miles
Clouds
Dew Point 37 °F
Humidity 81%
Rainfall 0.00 in
Snow Depth Not available.
UV Not available.
Pollen Not available.
Air Quality Not available.
Flu Activity Not available.
METAR EYVI 011850Z 00000KT CAVOK 06/03 Q1031 NOSIG

More Conditions Fewer Conditions

10-Day Weather Forecast

Almanac

Astronomy

Oct. 01, 2014 Rise Set
Actual Time 7:23 AM EEST 6:58 PM EEST
Civil Twilight 6:47 AM EEST 7:33 PM EEST
Nautical Twilight 6:06 AM EEST 8:15 PM EEST
Astronomical Twilight 5:23 AM EEST 8:57 PM EEST
Moon 2:49 PM EEST 11:30 PM EEST
Length of Visible Light 12h 46m
Length of Day
11h 35m
Tomorrow will be 4m 19s shorter.
Waxing Crescent, 50% of the Moon is Illuminated
Today
Waxing Crescent
Oct 1
First Quarter
Oct 8
Full
Oct 15
Last Quarter
Oct 23
New

Today's Extremes

Country Highs Country Lows

Community

WunderPhotos

Upload Photos

1,758,010 photos uploaded!

WunderBlogs® & News

By Dr. Jeff Masters
Director of Meteorology, Weather Underground
By Kari Strenfel
Meteorologist, Weather Underground
By Christopher C. Burt
Weather Historian, Weather Underground
October 1, 2014
October 1, 2014
October 1, 2014

Nearby

Snow Depth

Not available.

Earthquake Activity

City Distance Mag. Time & Date
No recent earthquake activity has been reported nearby.
Minimum magnitude displayed is 2.5.

Coastal Water Temperatures

Place Temperature
No Stations Reporting

Nearby Weather Stations